This is the latest recevied weather packets stored in our database for station/object JI1UWB-13. If no packets are shown the sender has not sent any weather packets the latest 10 day(s).
| Time | Temp. | Humidity | Pressure | Rain* | Wind** | Luminosity | Snow |
|---|---|---|---|---|---|---|---|
| 1777479338 | 13.33° C | 100% | 1019.9 hPa | 0 mm | - | - | - |
| 1777476917 | 13.89° C | 100% | 1019.6 hPa | 0 mm | - | - | - |
| 1777476339 | 13.89° C | 100% | 1019.6 hPa | 0 mm | - | - | - |
| 1777472117 | 13.33° C | 100% | 1019.4 hPa | 0.25 mm | - | - | - |
| 1777470317 | 14.44° C | 100% | 1019.2 hPa | 0 mm | - | - | - |
| 1777464317 | 14.44° C | 100% | 1018 hPa | 0 mm | - | - | - |
| 1777461918 | 14.44° C | 100% | 1017.7 hPa | 0 mm | - | - | - |
| 1777457716 | 14.44° C | 100% | 1016.6 hPa | 0 mm | - | - | - |
| 1777456517 | 14.44° C | 100% | 1016.2 hPa | 0 mm | - | - | - |
| 1777452316 | 14.44° C | 100% | 1015.2 hPa | 0 mm | - | - | - |
| 1777443940 | 17.78° C | 89% | 1012.9 hPa | 0 mm | - | - | - |
| 1777443318 | 17.22° C | 91% | 1012.7 hPa | 0 mm | - | - | - |
| 1777434316 | 17.78° C | 95% | 1012.3 hPa | 0 mm | - | - | - |
| 1777430716 | 18.33° C | 95% | 1012.1 hPa | 0 mm | - | - | - |
| 1777422918 | 17.78° C | 100% | 1012.5 hPa | 0 mm | - | - | - |
| 1777420517 | 17.22° C | 100% | 1012.2 hPa | 0 mm | - | - | - |
| 1777417518 | 16.67° C | 100% | 1011.8 hPa | 0 mm | - | - | - |
| 1777414519 | 16.67° C | 100% | 1011.7 hPa | 0 mm | - | - | - |
| 1777413917 | 16.67° C | 100% | 1011.4 hPa | 0 mm | - | - | - |
| 1777410918 | 16.67° C | 100% | 1011 hPa | 0 mm | - | - | - |
| 1777410317 | 16.67° C | 100% | 1010.8 hPa | 0 mm | - | - | - |
| 1777409118 | 16.67° C | 100% | 1010.2 hPa | 0 mm | - | - | - |
| 1777408517 | 16.67° C | 100% | 1010.3 hPa | 0 mm | - | - | - |
| 1777407338 | 16.67° C | 100% | 1010.2 hPa | 0 mm | - | - | - |
| 1777406717 | 16.67° C | 100% | 1009.9 hPa | 0 mm | - | - | - |
* Rain latest hour (hover to see other rain measurements)
** Current wind speed in m/s (hover to see current wind gust speed)